createdAt,value
2023-07-18T00:00:52.662Z,3.60
2023-07-18T00:03:25.425Z,3.42
2023-07-18T00:05:59.427Z,2.28
2023-07-18T00:08:32.104Z,3.53
2023-07-18T00:11:04.778Z,3.38
2023-07-18T00:13:38.977Z,2.85
2023-07-18T00:16:11.746Z,4.03
2023-07-18T00:18:44.406Z,3.63
2023-07-18T00:21:17.437Z,3.38
2023-07-18T00:23:51.229Z,3.60
2023-07-18T00:26:25.272Z,3.30
2023-07-18T00:28:59.363Z,2.20
2023-07-18T00:31:32.411Z,3.60
2023-07-18T00:34:07.425Z,3.40
2023-07-18T00:36:40.499Z,3.45
2023-07-18T00:39:13.763Z,2.95
2023-07-18T00:41:46.546Z,3.25
2023-07-18T00:44:20.797Z,3.10
2023-07-18T00:46:53.987Z,3.15
2023-07-18T00:49:27.192Z,3.85
2023-07-18T00:52:02.096Z,2.72
2023-07-18T00:54:35.252Z,3.60
2023-07-18T00:57:08.849Z,2.67
2023-07-18T00:59:44.164Z,3.60
2023-07-18T01:02:16.829Z,3.00
2023-07-18T01:04:49.547Z,3.65
2023-07-18T01:07:22.439Z,3.42
2023-07-18T01:09:55.703Z,3.10
2023-07-18T01:12:28.483Z,3.35
2023-07-18T01:15:02.532Z,3.72
2023-07-18T01:17:35.928Z,3.47
2023-07-18T01:20:12.173Z,3.50
2023-07-18T01:22:46.966Z,3.00
2023-07-18T01:25:20.231Z,3.35
2023-07-18T01:27:55.209Z,3.15
2023-07-18T01:30:28.457Z,2.67
2023-07-18T01:33:02.435Z,3.00
2023-07-18T01:38:10.621Z,2.22
2023-07-18T01:40:43.479Z,3.00
2023-07-18T01:43:16.151Z,3.60
2023-07-18T01:45:48.782Z,2.72
2023-07-18T01:48:21.520Z,3.25
2023-07-18T01:50:54.240Z,3.20
2023-07-18T01:53:31.528Z,3.15
2023-07-18T01:56:04.178Z,2.80
2023-07-18T01:58:37.111Z,3.50
2023-07-18T02:01:10.830Z,2.42
2023-07-18T02:03:43.499Z,2.70
2023-07-18T02:06:16.138Z,2.83
2023-07-18T02:08:50.259Z,2.63
2023-07-18T02:11:22.971Z,2.15
2023-07-18T02:13:58.664Z,2.38
2023-07-18T02:16:31.358Z,2.30
2023-07-18T02:19:05.253Z,3.35
2023-07-18T02:21:37.924Z,3.00
2023-07-18T02:24:12.052Z,3.08
2023-07-18T02:26:45.002Z,3.20
2023-07-18T02:29:17.595Z,3.28
2023-07-18T02:31:50.911Z,3.85
2023-07-18T02:34:26.533Z,3.63
2023-07-18T02:36:59.390Z,3.70
2023-07-18T02:39:36.816Z,3.55
2023-07-18T02:42:09.819Z,4.22
2023-07-18T02:44:42.414Z,3.65
2023-07-18T02:47:15.070Z,3.10
2023-07-18T02:49:47.678Z,3.03
2023-07-18T02:52:20.271Z,2.45
2023-07-18T02:54:54.918Z,3.30
2023-07-18T02:57:27.729Z,3.08
2023-07-18T03:00:00.666Z,3.83
2023-07-18T03:02:34.633Z,3.67
2023-07-18T03:05:08.978Z,2.47
2023-07-18T03:07:41.604Z,4.45
2023-07-18T03:10:15.747Z,3.92
2023-07-18T03:12:49.724Z,3.50
2023-07-18T03:15:22.768Z,3.53
2023-07-18T03:17:55.444Z,3.10
2023-07-18T03:20:28.263Z,3.08
2023-07-18T03:23:01.239Z,4.00
2023-07-18T03:25:35.308Z,3.80
2023-07-18T03:28:08.883Z,4.30
2023-07-18T03:30:42.186Z,2.67
2023-07-18T03:33:16.357Z,2.85
2023-07-18T03:35:49.019Z,3.83
2023-07-18T03:38:21.682Z,3.78
2023-07-18T03:40:56.059Z,3.25
2023-07-18T03:43:29.601Z,3.28
2023-07-18T03:46:02.297Z,3.33
2023-07-18T03:48:35.289Z,3.45
2023-07-18T03:51:07.971Z,4.38
2023-07-18T03:53:41.340Z,4.10
2023-07-18T03:56:16.335Z,3.30
2023-07-18T03:58:49.023Z,3.10
2023-07-18T04:01:22.106Z,3.28
2023-07-18T04:03:55.023Z,4.00
2023-07-18T04:06:27.700Z,4.53
2023-07-18T04:09:01.084Z,4.97
2023-07-18T04:11:35.070Z,4.32
2023-07-18T04:14:07.717Z,4.60
2023-07-18T04:16:40.454Z,3.92
2023-07-18T04:19:13.284Z,3.63
2023-07-18T04:21:45.986Z,3.03
2023-07-18T04:24:18.604Z,3.65
2023-07-18T04:26:52.682Z,3.17
2023-07-18T04:29:25.611Z,3.58
2023-07-18T04:31:58.243Z,4.15
2023-07-18T04:34:31.092Z,3.95
2023-07-18T04:37:04.606Z,3.50
2023-07-18T04:39:37.687Z,3.45
2023-07-18T04:42:12.281Z,3.45
2023-07-18T04:44:45.018Z,3.70
2023-07-18T04:47:17.719Z,4.05
2023-07-18T04:49:50.421Z,2.92
2023-07-18T04:52:23.281Z,3.90
2023-07-18T04:54:56.005Z,3.58
2023-07-18T04:57:30.289Z,3.72
2023-07-18T05:00:04.164Z,3.72
2023-07-18T05:02:37.434Z,4.10
2023-07-18T05:05:10.294Z,3.67
2023-07-18T05:07:45.812Z,3.30
2023-07-18T05:10:18.462Z,4.03
2023-07-18T05:12:53.951Z,3.33
2023-07-18T05:15:27.084Z,3.28
2023-07-18T05:17:59.986Z,3.17
2023-07-18T05:20:32.893Z,3.70
2023-07-18T05:23:06.127Z,4.38
2023-07-18T05:25:40.855Z,3.20
2023-07-18T05:28:15.414Z,3.42
2023-07-18T05:30:48.390Z,4.00
2023-07-18T05:33:21.093Z,3.35
2023-07-18T05:35:53.950Z,3.63
2023-07-18T05:38:26.733Z,3.20
2023-07-18T05:40:59.382Z,3.70
2023-07-18T05:43:33.616Z,3.30
2023-07-18T05:46:06.376Z,3.75
2023-07-18T05:48:39.034Z,3.63
2023-07-18T05:51:11.705Z,2.90
2023-07-18T05:53:44.483Z,3.72
2023-07-18T05:56:17.134Z,3.35
2023-07-18T05:58:51.128Z,3.55
2023-07-18T06:01:24.003Z,3.47
2023-07-18T06:03:57.351Z,3.20
2023-07-18T06:06:30.091Z,3.42
2023-07-18T06:09:02.747Z,3.70
2023-07-18T06:11:35.642Z,3.40
2023-07-18T06:14:09.624Z,2.97
2023-07-18T06:16:42.297Z,3.53
2023-07-18T06:19:15.014Z,3.40
2023-07-18T06:21:47.694Z,3.45
2023-07-18T06:24:20.732Z,4.05
2023-07-18T06:26:53.571Z,4.25
2023-07-18T06:29:28.167Z,3.40
2023-07-18T06:32:02.103Z,3.92
2023-07-18T06:34:41.570Z,3.37
2023-07-18T06:37:14.320Z,3.67
2023-07-18T06:39:47.498Z,3.30
2023-07-18T06:42:20.166Z,3.88
2023-07-18T06:44:54.121Z,3.92
2023-07-18T06:47:27.362Z,3.65
2023-07-18T06:50:00.203Z,3.53
2023-07-18T06:52:36.144Z,3.67
2023-07-18T06:55:11.585Z,4.25
2023-07-18T06:57:45.354Z,3.85
2023-07-18T07:00:20.974Z,3.92
2023-07-18T07:02:55.751Z,3.97
2023-07-18T07:08:00.879Z,4.40
2023-07-18T07:10:34.317Z,4.00
2023-07-18T07:13:07.339Z,3.63
2023-07-18T07:15:41.389Z,3.95
2023-07-18T07:18:14.870Z,4.30
2023-07-18T07:20:47.555Z,4.32
2023-07-18T07:23:20.230Z,3.90
2023-07-18T07:25:52.967Z,3.70
2023-07-18T07:28:25.667Z,4.35
2023-07-18T07:31:02.112Z,4.82
2023-07-18T07:33:37.379Z,5.00
2023-07-18T07:36:10.862Z,4.32
2023-07-18T07:38:43.870Z,4.00
2023-07-18T07:41:17.037Z,4.70
2023-07-18T07:43:49.874Z,3.85
2023-07-18T07:46:23.965Z,4.75
2023-07-18T07:48:56.694Z,4.40
2023-07-18T07:51:30.019Z,4.57
2023-07-18T07:54:02.764Z,4.13
2023-07-18T07:56:35.490Z,4.30
2023-07-18T07:59:11.837Z,4.05
2023-07-18T08:01:46.397Z,3.58
2023-07-18T08:04:19.161Z,3.42
2023-07-18T08:06:54.662Z,4.10
2023-07-18T08:09:27.402Z,3.38
2023-07-18T08:12:00.093Z,3.40
2023-07-18T08:14:33.717Z,2.85
2023-07-18T08:17:08.547Z,3.13
2023-07-18T08:19:41.259Z,2.40
2023-07-18T08:22:15.245Z,2.30
2023-07-18T08:24:47.959Z,2.22
2023-07-18T08:27:21.490Z,2.35
2023-07-18T08:29:54.125Z,2.30
2023-07-18T08:32:30.074Z,1.77
2023-07-18T08:35:03.039Z,1.67
2023-07-18T08:37:35.964Z,1.88
2023-07-18T08:40:11.012Z,2.00
2023-07-18T08:42:44.784Z,1.70
2023-07-18T08:45:17.739Z,2.00
2023-07-18T08:47:57.465Z,1.55
2023-07-18T08:50:30.986Z,1.58
2023-07-18T08:53:06.205Z,1.63
2023-07-18T08:55:38.987Z,1.90
2023-07-18T08:58:12.634Z,1.35
2023-07-18T09:00:45.874Z,1.23
2023-07-18T09:03:21.063Z,1.25
2023-07-18T09:05:53.776Z,1.30
2023-07-18T09:08:26.551Z,1.50
2023-07-18T09:11:03.182Z,1.85
2023-07-18T09:13:39.459Z,1.45
2023-07-18T09:16:16.095Z,1.60
2023-07-18T09:18:53.859Z,1.40
2023-07-18T09:21:26.857Z,1.52
2023-07-18T09:23:59.501Z,1.30
2023-07-18T09:26:32.188Z,1.30
2023-07-18T09:29:10.812Z,0.90
2023-07-18T09:31:46.449Z,1.27
2023-07-18T09:34:21.032Z,1.30
2023-07-18T09:37:00.534Z,1.17
2023-07-18T09:39:33.283Z,1.83
2023-07-18T09:42:09.792Z,1.30
2023-07-18T09:44:44.585Z,1.27
2023-07-18T09:47:17.580Z,1.50
2023-07-18T09:49:52.418Z,1.20
2023-07-18T09:52:28.431Z,2.13
2023-07-18T09:55:04.759Z,1.38
2023-07-18T09:57:39.097Z,1.77
2023-07-18T10:00:13.147Z,1.52
2023-07-18T10:02:46.926Z,2.20
2023-07-18T10:05:21.511Z,1.67
2023-07-18T10:07:54.762Z,1.50
2023-07-18T10:10:27.487Z,2.22
2023-07-18T10:13:01.319Z,1.60
2023-07-18T10:15:54.098Z,2.13
2023-07-18T10:18:26.837Z,1.73
2023-07-18T10:21:01.078Z,1.85
2023-07-18T10:23:43.501Z,1.33
2023-07-18T10:26:16.270Z,1.67
2023-07-18T10:28:49.637Z,1.90
2023-07-18T10:31:29.724Z,1.80
2023-07-18T10:34:12.367Z,1.33
2023-07-18T10:36:56.823Z,1.40
2023-07-18T10:39:37.560Z,1.50
2023-07-18T10:42:10.736Z,1.58
2023-07-18T10:44:44.004Z,1.30
2023-07-18T10:47:17.634Z,1.45
2023-07-18T10:49:50.422Z,1.23
2023-07-18T10:52:24.442Z,1.60
2023-07-18T10:57:30.448Z,1.23
2023-07-18T11:00:05.157Z,1.58
2023-07-18T11:02:39.566Z,1.23
2023-07-18T11:05:13.492Z,0.90
2023-07-18T11:07:48.597Z,1.17
2023-07-18T11:10:21.854Z,1.25
2023-07-18T11:12:56.076Z,1.67
2023-07-18T11:15:30.092Z,1.00
2023-07-18T11:20:37.702Z,1.23
2023-07-18T11:23:12.028Z,1.20
2023-07-18T11:25:44.885Z,1.00
2023-07-18T11:28:17.889Z,0.70
2023-07-18T11:30:50.533Z,1.20
2023-07-18T11:33:29.066Z,1.27
2023-07-18T11:36:01.777Z,1.27
2023-07-18T11:38:35.801Z,0.85
2023-07-18T11:43:42.309Z,1.23
2023-07-18T11:48:49.883Z,1.20
2023-07-18T11:51:22.749Z,1.10
2023-07-18T11:53:56.840Z,1.10
2023-07-18T11:56:29.809Z,1.00
2023-07-18T11:59:02.870Z,0.77
2023-07-18T12:01:38.680Z,0.93
2023-07-18T12:04:12.628Z,0.98
2023-07-18T12:06:45.435Z,1.20
2023-07-18T12:09:19.565Z,1.20
2023-07-18T12:11:52.275Z,1.10
2023-07-18T12:14:24.955Z,1.00
2023-07-18T12:16:57.702Z,1.08
2023-07-18T12:19:30.395Z,1.20
2023-07-18T12:22:03.077Z,1.13
2023-07-18T12:24:37.298Z,1.05
2023-07-18T12:27:09.975Z,0.98
2023-07-18T12:29:43.355Z,1.30
2023-07-18T12:32:16.156Z,1.15
2023-07-18T12:34:49.240Z,1.15
2023-07-18T12:37:22.089Z,0.73
2023-07-18T12:39:56.142Z,1.27
2023-07-18T12:42:29.325Z,1.15
2023-07-18T12:45:02.016Z,1.00
2023-07-18T12:47:35.034Z,1.30
2023-07-18T12:50:09.041Z,1.00
2023-07-18T12:52:41.807Z,1.10
2023-07-18T12:55:15.808Z,0.88
2023-07-18T12:57:49.353Z,0.80
2023-07-18T13:00:22.214Z,1.00
2023-07-18T13:02:56.885Z,1.10
2023-07-18T13:05:29.684Z,1.10
2023-07-18T13:08:02.268Z,1.17
2023-07-18T13:10:36.317Z,1.13
2023-07-18T13:13:09.591Z,0.85
2023-07-18T13:15:42.297Z,1.20
2023-07-18T13:18:15.340Z,0.98
2023-07-18T13:20:48.386Z,1.20
2023-07-18T13:23:21.626Z,1.20
2023-07-18T13:25:55.943Z,1.20
2023-07-18T13:28:28.562Z,1.15
2023-07-18T13:31:02.748Z,0.90
2023-07-18T13:33:35.411Z,1.15
2023-07-18T13:36:08.244Z,1.02
2023-07-18T13:38:40.865Z,1.10
2023-07-18T13:41:15.967Z,1.20
2023-07-18T13:43:48.832Z,1.08
2023-07-18T13:46:21.850Z,1.20
2023-07-18T13:48:55.146Z,0.93
2023-07-18T13:51:27.975Z,1.23
2023-07-18T13:54:00.887Z,1.48
2023-07-18T13:56:35.025Z,1.10
2023-07-18T13:59:08.000Z,1.05
2023-07-18T14:01:40.790Z,1.52
2023-07-18T14:04:14.473Z,1.20
2023-07-18T14:06:47.175Z,1.20
2023-07-18T14:09:20.450Z,1.15
2023-07-18T14:11:54.492Z,1.27
2023-07-18T14:14:27.123Z,1.40
2023-07-18T14:16:59.940Z,1.00
2023-07-18T14:19:32.768Z,0.93
2023-07-18T14:22:06.268Z,1.05
2023-07-18T14:24:39.167Z,1.13
2023-07-18T14:27:14.645Z,1.40
2023-07-18T14:29:47.378Z,1.20
2023-07-18T14:32:20.051Z,1.03
2023-07-18T14:34:52.742Z,1.15
2023-07-18T14:37:25.640Z,1.00
2023-07-18T14:40:00.427Z,1.00
2023-07-18T14:42:34.764Z,1.13
2023-07-18T14:45:07.850Z,1.60
2023-07-18T14:47:40.903Z,1.02
2023-07-18T14:50:13.641Z,1.17
2023-07-18T14:52:46.324Z,1.37
2023-07-18T14:55:21.127Z,1.38
2023-07-18T14:57:55.447Z,1.02
2023-07-18T15:00:28.102Z,1.27
2023-07-18T15:03:00.818Z,1.25
2023-07-18T15:05:33.456Z,1.33
2023-07-18T15:08:06.286Z,0.82
2023-07-18T15:10:39.035Z,1.10
2023-07-18T15:13:13.486Z,1.15
2023-07-18T15:15:46.136Z,1.00
2023-07-18T15:18:18.794Z,0.70
2023-07-18T15:20:51.500Z,1.10
2023-07-18T15:23:24.349Z,0.95
2023-07-18T15:25:57.016Z,1.10
2023-07-18T15:28:31.788Z,1.00
2023-07-18T15:31:05.462Z,1.20
2023-07-18T15:33:38.347Z,1.20
2023-07-18T15:36:11.460Z,1.27
2023-07-18T15:38:46.331Z,1.20
2023-07-18T15:41:19.570Z,1.33
2023-07-18T15:43:54.328Z,9.90
2023-07-18T15:46:27.037Z,1.30
2023-07-18T15:48:59.760Z,1.10
2023-07-18T15:51:32.828Z,1.05
2023-07-18T15:54:05.541Z,0.88
2023-07-18T15:56:38.242Z,1.25
2023-07-18T15:59:12.294Z,5.72
2023-07-18T16:01:46.955Z,2.80
2023-07-18T16:04:19.744Z,0.98
2023-07-18T16:06:53.209Z,1.30
2023-07-18T16:12:01.548Z,1.02
2023-07-18T16:14:36.204Z,1.30
2023-07-18T16:17:10.394Z,1.13
2023-07-18T16:19:45.627Z,1.05
2023-07-18T16:22:18.553Z,1.27
2023-07-18T16:24:51.323Z,1.17
2023-07-18T16:27:24.127Z,1.20
2023-07-18T16:29:58.425Z,1.13
2023-07-18T16:32:33.922Z,0.93
2023-07-18T16:35:07.668Z,1.17
2023-07-18T16:40:13.125Z,0.82
2023-07-18T16:42:45.868Z,0.75
2023-07-18T16:45:19.885Z,1.38
2023-07-18T16:47:52.790Z,0.90
2023-07-18T16:50:25.527Z,1.20
2023-07-18T16:52:58.525Z,1.05
2023-07-18T16:55:31.199Z,1.00
2023-07-18T16:58:04.735Z,1.10
2023-07-18T17:00:39.739Z,1.27
2023-07-18T17:03:13.013Z,1.10
2023-07-18T17:05:45.716Z,0.90
2023-07-18T17:08:18.351Z,1.10
2023-07-18T17:10:50.977Z,1.00
2023-07-18T17:13:24.417Z,1.05
2023-07-18T17:16:00.825Z,1.00
2023-07-18T17:18:33.721Z,1.00
2023-07-18T17:21:07.642Z,0.80
2023-07-18T17:23:40.346Z,1.05
2023-07-18T17:26:13.072Z,0.90
2023-07-18T17:28:45.733Z,0.75
2023-07-18T17:31:19.795Z,1.10
2023-07-18T17:33:52.439Z,1.08
2023-07-18T17:36:25.119Z,1.00
2023-07-18T17:38:57.852Z,0.70
2023-07-18T17:41:30.722Z,1.10
2023-07-18T17:44:04.757Z,1.08
2023-07-18T17:46:38.842Z,1.23
2023-07-18T17:49:11.607Z,0.90
2023-07-18T17:51:44.290Z,0.98
2023-07-18T17:54:17.106Z,1.38
2023-07-18T17:56:49.948Z,1.00
2023-07-18T17:59:22.610Z,0.88
2023-07-18T18:01:56.889Z,1.08
2023-07-18T18:04:30.870Z,0.70
2023-07-18T18:07:03.960Z,1.13
2023-07-18T18:09:38.155Z,1.02
2023-07-18T18:12:12.230Z,1.00
2023-07-18T18:14:45.877Z,0.98
2023-07-18T18:17:21.205Z,1.25
2023-07-18T18:19:55.060Z,1.08
2023-07-18T18:22:31.717Z,1.00
2023-07-18T18:25:05.627Z,0.90
2023-07-18T18:27:38.914Z,0.82
2023-07-18T18:30:12.703Z,1.20
2023-07-18T18:32:47.937Z,1.10
2023-07-18T18:35:21.539Z,1.10
2023-07-18T18:37:57.850Z,1.20
2023-07-18T18:40:31.685Z,1.13
2023-07-18T18:43:05.256Z,1.30
2023-07-18T18:45:38.315Z,1.02
2023-07-18T18:48:13.154Z,1.15
2023-07-18T18:50:46.268Z,1.52
2023-07-18T18:53:20.291Z,1.63
2023-07-18T18:55:52.963Z,1.88
2023-07-18T18:58:25.722Z,1.80
2023-07-18T19:00:58.460Z,1.80
2023-07-18T19:03:32.606Z,1.30
2023-07-18T19:06:05.572Z,1.30
2023-07-18T19:08:38.250Z,1.35
2023-07-18T19:11:11.219Z,1.10
2023-07-18T19:13:43.871Z,1.45
2023-07-18T19:16:28.800Z,1.40
2023-07-18T19:19:13.408Z,1.70
2023-07-18T19:21:46.158Z,1.35
2023-07-18T19:24:18.800Z,1.23
2023-07-18T19:26:51.482Z,1.10
2023-07-18T19:29:24.207Z,1.02
2023-07-18T19:31:57.203Z,1.20
2023-07-18T19:34:32.136Z,1.40
2023-07-18T19:37:05.620Z,1.15
2023-07-18T19:39:38.369Z,1.30
2023-07-18T19:42:10.997Z,1.20
2023-07-18T19:44:45.436Z,1.33
2023-07-18T19:47:20.577Z,1.10
2023-07-18T19:49:56.340Z,1.00
2023-07-18T19:52:29.017Z,1.00
2023-07-18T19:55:01.665Z,1.10
2023-07-18T19:57:34.301Z,1.25
2023-07-18T20:00:07.977Z,1.40
2023-07-18T20:02:41.627Z,1.40
2023-07-18T20:05:15.798Z,1.30
2023-07-18T20:07:48.385Z,1.20
2023-07-18T20:10:21.145Z,1.13
2023-07-18T20:12:54.245Z,1.30
2023-07-18T20:15:27.074Z,1.10
2023-07-18T20:17:59.824Z,1.38
2023-07-18T20:20:34.139Z,1.05
2023-07-18T20:23:06.867Z,1.10
2023-07-18T20:25:39.558Z,1.25
2023-07-18T20:28:12.270Z,1.33
2023-07-18T20:30:44.990Z,1.38
2023-07-18T20:33:17.656Z,1.20
2023-07-18T20:35:51.853Z,1.30
2023-07-18T20:40:58.692Z,1.08
2023-07-18T20:43:31.571Z,1.30
2023-07-18T20:46:04.895Z,1.40
2023-07-18T20:48:37.890Z,1.40
2023-07-18T20:51:11.926Z,2.05
2023-07-18T20:53:44.723Z,2.50
2023-07-18T20:56:17.410Z,7.63
2023-07-18T20:58:50.067Z,1.90
2023-07-18T21:01:23.049Z,1.52
2023-07-18T21:03:56.041Z,1.33
2023-07-18T21:06:30.315Z,1.60
2023-07-18T21:09:03.614Z,1.55
2023-07-18T21:11:37.046Z,1.83
2023-07-18T21:14:09.718Z,1.77
2023-07-18T21:16:42.953Z,1.70
2023-07-18T21:19:15.876Z,1.60
2023-07-18T21:21:49.902Z,2.00
2023-07-18T21:24:22.831Z,1.08
2023-07-18T21:26:55.849Z,1.20
2023-07-18T21:29:28.716Z,1.77
2023-07-18T21:32:01.412Z,1.52
2023-07-18T21:34:34.864Z,1.75
2023-07-18T21:37:09.321Z,1.40
2023-07-18T21:39:42.933Z,2.00
2023-07-18T21:42:15.808Z,1.45
2023-07-18T21:44:48.473Z,1.58
2023-07-18T21:47:21.169Z,1.45
2023-07-18T21:49:53.810Z,1.45
2023-07-18T21:52:28.165Z,1.40
2023-07-18T21:55:01.756Z,1.23
2023-07-18T21:57:34.508Z,1.70
2023-07-18T22:00:07.923Z,1.40
2023-07-18T22:02:49.813Z,1.63
2023-07-18T22:05:23.007Z,1.52
2023-07-18T22:07:56.980Z,1.40
2023-07-18T22:10:29.668Z,1.35
2023-07-18T22:13:03.624Z,1.67
2023-07-18T22:15:36.336Z,1.27
2023-07-18T22:18:24.546Z,1.33
2023-07-18T22:20:58.882Z,1.65
2023-07-18T22:23:32.946Z,1.73
2023-07-18T22:28:44.944Z,1.80
2023-07-18T22:31:17.919Z,1.50
2023-07-18T22:33:50.756Z,1.35
2023-07-18T22:36:23.435Z,1.50
2023-07-18T22:38:57.627Z,1.73
2023-07-18T22:41:30.301Z,1.65
2023-07-18T22:44:02.968Z,1.52
2023-07-18T22:46:35.816Z,1.67
2023-07-18T22:49:09.664Z,1.40
2023-07-18T22:51:42.463Z,1.60
2023-07-18T22:54:16.506Z,1.80
2023-07-18T22:56:52.187Z,1.50
2023-07-18T22:59:27.355Z,1.23
2023-07-18T23:02:00.076Z,1.35
2023-07-18T23:04:32.850Z,1.40
2023-07-18T23:07:06.026Z,1.45
2023-07-18T23:09:40.101Z,1.25
2023-07-18T23:12:13.301Z,1.67
2023-07-18T23:14:46.407Z,1.60
2023-07-18T23:17:19.027Z,1.25
2023-07-18T23:19:52.090Z,1.40
2023-07-18T23:22:24.806Z,1.30
2023-07-18T23:24:59.178Z,1.33
2023-07-18T23:27:32.286Z,1.15
2023-07-18T23:30:05.113Z,1.63
2023-07-18T23:32:37.837Z,1.40
2023-07-18T23:35:10.794Z,1.73
2023-07-18T23:37:43.675Z,1.38
2023-07-18T23:40:17.755Z,1.40
2023-07-18T23:42:50.655Z,1.40
2023-07-18T23:45:23.289Z,1.20
2023-07-18T23:47:56.095Z,1.05
2023-07-18T23:50:29.039Z,1.48
2023-07-18T23:53:01.953Z,1.13
2023-07-18T23:55:35.969Z,1.38
2023-07-18T23:58:08.637Z,1.17
